Time;durP1;ratioP1;P1;durP2;ratioP2;P2;SDS_P1;SDS_P2;PMS_P1;PMS_P2;Temp;Humidity;BMP_temperature;BMP_pressure;BME280_temperature;BME280_humidity;BME280_pressure;Samples;Min_cycle;Max_cycle;Signal;HPM_P1;HPM_P2
2021/12/02 00:00:11;;;;;;;13.55;3.58;;;;;;;-2.05;55.91;97246.09;5082400;28;20055;-73
2021/12/02 00:02:40;;;;;;;11.25;3.70;;;;;;;-2.10;55.95;97243.41;5085225;28;20040;-74
2021/12/02 00:05:07;;;;;;;14.18;3.85;;;;;;;-2.00;55.86;97258.75;5080888;28;20045;-74
2021/12/02 00:07:33;;;;;;;12.13;3.87;;;;;;;-2.01;55.91;97265.94;5072029;28;20045;-73
2021/12/02 00:10:00;;;;;;;12.23;3.87;;;;;;;-2.00;55.82;97269.44;5076590;28;20037;-74
2021/12/02 00:12:26;;;;;;;12.48;3.88;;;;;;;-2.01;55.89;97267.84;5082321;28;20040;-73
2021/12/02 00:14:53;;;;;;;9.97;3.60;;;;;;;-1.98;56.05;97269.19;5075274;28;20043;-73
2021/12/02 00:17:28;;;;;;;13.50;4.45;;;;;;;-1.95;55.83;97272.16;5081921;28;20032;-74
2021/12/02 00:23:07;;;;;;;11.90;3.95;;;;;;;-1.96;56.09;97265.19;5083160;28;20055;-73
2021/12/02 00:25:33;;;;;;;10.57;3.60;;;;;;;-2.01;55.76;97287.38;5080175;28;20036;-74
2021/12/02 00:28:00;;;;;;;14.18;4.25;;;;;;;-2.03;56.17;97286.00;5075454;28;20067;-74
2021/12/02 00:30:28;;;;;;;14.48;4.20;;;;;;;-2.13;56.35;97294.75;5078971;28;20041;-73
2021/12/02 00:32:56;;;;;;;14.40;4.10;;;;;;;-2.12;56.39;97293.69;5075459;28;20488;-74
2021/12/02 00:35:22;;;;;;;11.52;3.85;;;;;;;-2.15;56.70;97286.19;5082096;28;20198;-74
2021/12/02 00:37:49;;;;;;;11.63;3.85;;;;;;;-2.10;56.87;97288.91;5097774;27;20048;-74
2021/12/02 00:40:15;;;;;;;18.33;4.60;;;;;;;-2.18;56.88;97303.56;5084746;28;20098;-74
2021/12/02 00:42:42;;;;;;;17.80;4.47;;;;;;;-2.19;57.03;97309.16;5077771;28;20059;-73
2021/12/02 00:45:09;;;;;;;12.88;3.85;;;;;;;-2.20;57.31;97313.69;5085175;28;20052;-73
2021/12/02 00:47:38;;;;;;;15.90;4.10;;;;;;;-2.16;57.37;97314.84;5076315;28;20485;-74
2021/12/02 00:50:05;;;;;;;17.10;3.92;;;;;;;-2.12;57.19;97325.81;5078151;28;20076;-73
2021/12/02 00:52:31;;;;;;;15.95;4.43;;;;;;;-2.11;57.52;97326.66;5085116;28;20044;-73
2021/12/02 00:54:58;;;;;;;13.68;4.53;;;;;;;-2.15;57.69;97331.69;5097676;28;20048;-73
2021/12/02 00:57:27;;;;;;;13.07;4.43;;;;;;;-2.16;57.58;97336.25;5091220;28;20049;-73
2021/12/02 00:59:54;;;;;;;17.83;4.90;;;;;;;-2.10;57.45;97347.00;5084040;28;20482;-72
2021/12/02 01:02:21;;;;;;;11.40;4.25;;;;;;;-2.11;57.33;97353.44;5080926;28;20094;-72
2021/12/02 01:04:49;;;;;;;14.68;4.22;;;;;;;-2.12;57.28;97346.47;5072537;28;20074;-73
2021/12/02 01:07:16;;;;;;;12.68;4.25;;;;;;;-2.00;57.20;97350.59;5079670;28;20556;-73
2021/12/02 01:09:42;;;;;;;16.80;4.00;;;;;;;-2.05;57.17;97358.59;5077895;28;20459;-74
2021/12/02 01:12:08;;;;;;;16.43;4.37;;;;;;;-2.09;57.51;97352.13;5085482;28;20314;-73
2021/12/02 01:14:34;;;;;;;16.23;4.32;;;;;;;-2.11;57.90;97361.47;5065042;28;20526;-73
2021/12/02 01:17:00;;;;;;;13.90;3.85;;;;;;;-2.12;57.88;97360.66;5072138;28;20098;-73
2021/12/02 01:19:25;;;;;;;13.63;4.20;;;;;;;-2.19;58.02;97370.75;5074516;28;20134;-70
2021/12/02 01:21:55;;;;;;;14.27;4.07;;;;;;;-2.16;57.86;97372.91;5089441;28;20052;-72
2021/12/02 01:24:23;;;;;;;14.13;4.30;;;;;;;-2.11;57.88;97372.97;5056928;28;20410;-73
2021/12/02 01:26:51;;;;;;;12.18;3.92;;;;;;;-2.06;57.75;97369.53;5082979;28;20524;-74
2021/12/02 01:29:20;;;;;;;15.70;3.90;;;;;;;-2.10;57.67;97365.75;5084419;28;20463;-73
2021/12/02 01:31:49;;;;;;;11.13;3.80;;;;;;;-2.06;57.79;97366.88;5084838;28;20040;-74
2021/12/02 01:34:21;;;;;;;11.63;4.07;;;;;;;-2.07;57.67;97371.44;5074585;28;20143;-74
2021/12/02 01:36:49;;;;;;;11.70;3.30;;;;;;;-2.03;57.51;97375.22;5081440;28;20058;-73
2021/12/02 01:39:17;;;;;;;12.85;3.58;;;;;;;-1.98;57.43;97371.78;5082574;28;20098;-73
2021/12/02 01:41:45;;;;;;;10.90;3.80;;;;;;;-1.92;57.21;97383.38;5079951;28;20072;-73
2021/12/02 01:44:13;;;;;;;12.25;3.67;;;;;;;-1.91;57.28;97375.06;5082778;28;20036;-74
2021/12/02 01:46:41;;;;;;;11.93;3.45;;;;;;;-1.93;57.28;97382.53;5071976;28;20496;-73
2021/12/02 01:49:09;;;;;;;13.47;3.70;;;;;;;-1.96;57.52;97379.53;5088565;28;20054;-73
2021/12/02 01:51:38;;;;;;;12.13;3.38;;;;;;;-1.92;57.39;97386.84;5073598;28;20044;-72
2021/12/02 01:54:07;;;;;;;10.23;3.35;;;;;;;-2.02;57.89;97381.38;5087129;28;20068;-73
2021/12/02 01:56:42;;;;;;;9.02;2.78;;;;;;;-2.00;57.62;97381.94;5087136;28;20048;-73
2021/12/02 01:59:10;;;;;;;9.00;2.70;;;;;;;-2.02;57.48;97394.78;5077004;28;20060;-73
2021/12/02 02:01:40;;;;;;;10.27;2.75;;;;;;;-1.91;57.30;97393.81;5084063;28;20491;-74
2021/12/02 02:04:07;;;;;;;10.30;3.08;;;;;;;-1.93;56.66;97398.59;5086668;28;20525;-73
2021/12/02 02:06:37;;;;;;;16.63;3.92;;;;;;;-1.91;56.67;97406.41;5052811;28;20044;-73
2021/12/02 02:09:05;;;;;;;8.05;2.78;;;;;;;-1.88;56.61;97376.44;5085828;28;20052;-73
2021/12/02 02:11:31;;;;;;;9.98;2.88;;;;;;;-1.96;56.88;97400.97;5087677;28;20097;-74
2021/12/02 02:14:00;;;;;;;9.65;3.05;;;;;;;-1.95;57.00;97399.91;5081587;28;20062;-74
2021/12/02 02:16:28;;;;;;;8.25;2.67;;;;;;;-2.01;56.90;97409.78;5085986;28;20584;-74
2021/12/02 02:18:54;;;;;;;9.20;2.83;;;;;;;-2.00;56.99;97419.44;5077154;28;20519;-74
2021/12/02 02:21:23;;;;;;;10.02;3.08;;;;;;;-2.00;57.04;97414.09;5086954;27;20091;-74
2021/12/02 02:24:00;;;;;;;9.00;2.70;;;;;;;-2.16;57.11;97402.38;5085461;28;20036;-74
2021/12/02 02:26:31;;;;;;;9.90;3.10;;;;;;;-2.02;57.04;97408.16;5086057;28;20456;-75
2021/12/02 02:28:57;;;;;;;11.00;2.63;;;;;;;-2.00;56.86;97411.41;5064037;28;20048;-73
2021/12/02 02:31:27;;;;;;;10.45;2.67;;;;;;;-1.92;56.51;97407.47;5083233;28;20051;-72
2021/12/02 02:33:53;;;;;;;9.97;2.93;;;;;;;-2.00;56.01;97396.13;5088902;28;20148;-72
2021/12/02 02:36:22;;;;;;;10.02;2.88;;;;;;;-2.04;56.17;97429.00;5085395;28;20584;-73
2021/12/02 02:38:59;;;;;;;8.00;2.50;;;;;;;-2.05;56.26;97428.22;5071551;28;20045;-72
2021/12/02 02:41:27;;;;;;;11.88;3.75;;;;;;;-1.96;56.35;97431.25;5083557;28;20059;-71
2021/12/02 02:43:59;;;;;;;23.73;3.72;;;;;;;-1.94;56.31;97429.13;5082010;28;20048;-71
2021/12/02 02:46:26;;;;;;;9.80;3.00;;;;;;;-1.99;56.24;97426.41;5078414;28;20509;-72
2021/12/02 02:48:53;;;;;;;11.07;2.92;;;;;;;-1.98;56.33;97443.28;5092754;28;20135;-72
2021/12/02 02:51:20;;;;;;;8.70;3.03;;;;;;;-1.96;56.17;97428.59;5084960;28;20106;-71
2021/12/02 02:53:51;;;;;;;10.40;2.70;;;;;;;-1.97;56.00;97432.31;5083824;28;20082;-72
2021/12/02 02:56:18;;;;;;;8.63;2.38;;;;;;;-1.93;55.78;97422.72;5089114;28;20047;-73
2021/12/02 03:06:44;;;;;;;7.90;2.10;;;;;;;-1.99;55.36;97450.53;5084471;28;20048;-71
2021/12/02 03:12:23;;;;;;;10.60;3.23;;;;;;;-2.05;55.67;97444.28;5058007;28;20044;-73
2021/12/02 03:17:30;;;;;;;6.65;2.20;;;;;;;-1.96;55.50;97460.72;5085247;28;20079;-72
2021/12/02 03:19:56;;;;;;;5.50;1.90;;;;;;;-1.89;55.31;97458.66;5082366;28;20048;-72
2021/12/02 03:22:22;;;;;;;7.10;2.20;;;;;;;-1.98;54.87;97460.16;5086722;28;20306;-73
2021/12/02 03:24:50;;;;;;;6.33;2.17;;;;;;;-2.03;55.16;97454.75;5087139;28;20500;-72
2021/12/02 03:27:17;;;;;;;5.40;1.85;;;;;;;-2.02;55.48;97464.41;5082547;28;20386;-72
2021/12/02 03:29:43;;;;;;;8.47;2.07;;;;;;;-1.96;55.30;97468.75;5082813;28;20048;-73
2021/12/02 03:32:10;;;;;;;6.20;2.00;;;;;;;-2.01;55.35;97463.34;5086250;28;20035;-72
2021/12/02 03:34:37;;;;;;;7.20;2.30;;;;;;;-1.97;55.33;97477.03;5083158;28;20426;-73
2021/12/02 03:37:04;;;;;;;7.28;2.05;;;;;;;-1.91;55.32;97473.38;5077947;28;20083;-72
2021/12/02 03:39:30;;;;;;;5.70;1.80;;;;;;;-1.93;55.47;97472.81;5082152;28;20101;-73
2021/12/02 03:41:58;;;;;;;6.03;1.90;;;;;;;-1.81;55.33;97475.34;5088796;28;20313;-72
2021/12/02 03:44:25;;;;;;;5.50;1.80;;;;;;;-1.84;55.11;97476.66;5099366;28;20048;-72
2021/12/02 03:46:52;;;;;;;7.60;2.10;;;;;;;-1.91;55.39;97484.88;5074249;28;20507;-72
2021/12/02 03:49:18;;;;;;;5.72;1.90;;;;;;;-1.87;55.24;97487.88;5085211;28;20036;-72
2021/12/02 03:51:44;;;;;;;3.97;1.70;;;;;;;-1.90;55.47;97486.50;5077098;28;20040;-72
2021/12/02 03:54:10;;;;;;;11.00;2.05;;;;;;;-1.88;55.62;97484.38;5065832;28;20055;-72
2021/12/02 03:56:36;;;;;;;6.75;2.03;;;;;;;-1.92;55.64;97491.31;5071459;28;20048;-73
2021/12/02 03:59:04;;;;;;;6.47;2.17;;;;;;;-1.96;55.62;97492.03;5069816;28;20056;-73
2021/12/02 04:01:30;;;;;;;6.05;2.05;;;;;;;-1.94;55.45;97493.44;5086220;28;20093;-72
2021/12/02 04:03:56;;;;;;;7.28;2.00;;;;;;;-1.94;55.48;97493.44;5089026;28;20055;-73
2021/12/02 04:06:22;;;;;;;5.97;2.10;;;;;;;-1.98;55.72;97497.66;5082438;28;20044;-73
2021/12/02 04:11:39;;;;;;;4.88;1.90;;;;;;;-1.94;55.45;97504.13;5087743;28;20044;-72
2021/12/02 04:14:13;;;;;;;7.38;1.88;;;;;;;-1.98;55.56;97507.56;5079266;28;20318;-72
2021/12/02 04:16:40;;;;;;;8.30;2.10;;;;;;;-2.07;55.83;97507.19;5083696;28;20097;-73
2021/12/02 04:19:08;;;;;;;5.43;1.80;;;;;;;-2.16;56.21;97515.66;5080932;28;20470;-72
2021/12/02 04:21:34;;;;;;;6.53;1.70;;;;;;;-2.19;56.28;97510.78;5094840;28;20044;-72
2021/12/02 04:24:01;;;;;;;5.38;1.83;;;;;;;-2.20;56.16;97517.19;5082059;28;20135;-73
2021/12/02 04:26:28;;;;;;;6.05;2.00;;;;;;;-2.19;56.12;97526.84;5079996;28;20043;-73
2021/12/02 04:28:54;;;;;;;6.80;2.23;;;;;;;-2.34;56.43;97527.47;5078444;28;20044;-72
2021/12/02 04:31:22;;;;;;;5.80;1.87;;;;;;;-2.33;56.45;97523.72;5084140;28;20481;-73
2021/12/02 04:33:48;;;;;;;5.68;1.95;;;;;;;-2.32;56.89;97527.22;5081338;28;20093;-72
2021/12/02 04:36:14;;;;;;;8.63;2.10;;;;;;;-2.39;56.71;97532.75;5084081;28;20044;-73
2021/12/02 04:38:40;;;;;;;5.97;2.10;;;;;;;-2.40;56.77;97541.03;5094171;28;20477;-72
2021/12/02 04:41:06;;;;;;;8.30;2.20;;;;;;;-2.45;56.97;97553.28;5086712;28;20048;-72
2021/12/02 04:43:32;;;;;;;9.37;2.77;;;;;;;-2.39;56.26;97539.97;5081257;28;20543;-72
2021/12/02 04:45:58;;;;;;;10.13;2.40;;;;;;;-2.38;56.45;97552.28;5079437;28;20108;-72
2021/12/02 04:48:25;;;;;;;6.57;2.40;;;;;;;-2.47;56.79;97549.22;5081582;28;20139;-72
2021/12/02 04:50:52;;;;;;;8.73;2.47;;;;;;;-2.55;56.92;97550.44;5085903;28;20097;-72
2021/12/02 04:53:19;;;;;;;8.38;2.42;;;;;;;-2.58;57.06;97534.88;5073784;28;20072;-71
2021/12/02 04:55:45;;;;;;;7.77;2.30;;;;;;;-2.52;56.75;97536.56;5084303;28;20047;-72
2021/12/02 04:58:11;;;;;;;7.28;2.20;;;;;;;-2.54;56.57;97551.25;5081868;28;20052;-71
2021/12/02 05:00:37;;;;;;;8.90;2.30;;;;;;;-2.52;56.59;97552.63;5073285;28;20483;-72
2021/12/02 05:03:03;;;;;;;7.70;2.83;;;;;;;-2.50;56.34;97550.50;5080719;28;20516;-72
2021/12/02 05:05:32;;;;;;;13.53;4.07;;;;;;;-2.59;56.51;97555.47;5086753;28;20068;-72
2021/12/02 05:08:00;;;;;;;7.70;2.70;;;;;;;-2.49;56.62;97567.41;5095008;28;20105;-73
2021/12/02 05:10:26;;;;;;;8.90;2.80;;;;;;;-2.53;56.24;97572.41;5085063;28;20048;-72
2021/12/02 05:12:53;;;;;;;8.10;2.60;;;;;;;-2.59;56.35;97568.06;5086420;28;20520;-70
2021/12/02 05:15:19;;;;;;;7.40;2.33;;;;;;;-2.64;56.67;97566.09;5090767;28;20138;-71
2021/12/02 05:17:45;;;;;;;8.38;2.35;;;;;;;-2.77;56.82;97569.09;5090603;28;20453;-72
2021/12/02 05:20:11;;;;;;;8.18;2.45;;;;;;;-2.66;56.48;97576.25;5108609;28;20212;-72
2021/12/02 05:22:38;;;;;;;14.73;4.13;;;;;;;-2.74;56.22;97564.06;5104730;28;20048;-72
2021/12/02 05:25:06;;;;;;;9.60;3.65;;;;;;;-2.67;56.00;97579.13;5090791;28;20043;-71
2021/12/02 05:27:32;;;;;;;7.88;2.65;;;;;;;-2.87;55.66;97580.44;5091824;28;20579;-72
2021/12/02 05:29:58;;;;;;;10.33;2.30;;;;;;;-3.22;56.64;97595.59;5092221;28;20070;-72
2021/12/02 05:32:24;;;;;;;7.43;2.30;;;;;;;-3.42;57.48;97594.16;5089769;28;20580;-72
2021/12/02 05:34:50;;;;;;;6.80;2.17;;;;;;;-3.51;57.33;97592.13;5098582;28;20052;-72
2021/12/02 05:37:17;;;;;;;8.43;2.23;;;;;;;-3.54;57.77;97592.59;5083579;28;20128;-76
2021/12/02 05:39:44;;;;;;;6.47;2.20;;;;;;;-3.68;57.52;97590.19;5073965;28;20098;-73
2021/12/02 05:42:10;;;;;;;7.63;2.42;;;;;;;-3.83;57.67;97608.56;5089830;28;20052;-74
2021/12/02 05:44:36;;;;;;;8.30;2.43;;;;;;;-3.98;58.34;97609.88;5084175;28;20050;-72
2021/12/02 05:47:03;;;;;;;5.13;1.60;;;;;;;-3.89;58.02;97616.47;5087389;28;20132;-73
2021/12/02 05:49:29;;;;;;;9.13;2.33;;;;;;;-4.09;58.34;97632.03;5080148;28;20590;-72
2021/12/02 05:51:55;;;;;;;8.63;2.43;;;;;;;-4.10;58.65;97599.19;5085819;28;20155;-71
2021/12/02 05:54:21;;;;;;;7.20;2.17;;;;;;;-3.83;57.85;97608.56;5073530;28;20041;-71
2021/12/02 05:56:48;;;;;;;8.00;2.33;;;;;;;-3.80;57.57;97613.44;5082488;28;20051;-71
2021/12/02 05:59:14;;;;;;;6.20;2.08;;;;;;;-3.59;57.02;97617.34;5083043;28;20032;-72
2021/12/02 06:01:42;;;;;;;6.63;2.50;;;;;;;-3.47;56.65;97622.66;5088445;28;20060;-71
2021/12/02 06:04:09;;;;;;;7.80;2.60;;;;;;;-3.58;57.15;97617.13;5071550;28;20055;-72
2021/12/02 06:06:35;;;;;;;6.83;2.03;;;;;;;-3.77;57.51;97612.97;5078410;28;20495;-73
2021/12/02 06:09:04;;;;;;;6.07;2.28;;;;;;;-3.73;57.21;97620.28;5068166;28;20080;-72
2021/12/02 06:11:31;;;;;;;6.77;2.07;;;;;;;-3.61;56.68;97625.59;5088878;28;20535;-71
2021/12/02 06:13:58;;;;;;;6.23;2.00;;;;;;;-4.06;57.94;97647.56;5082543;28;20079;-71
2021/12/02 06:16:24;;;;;;;5.50;2.00;;;;;;;-3.94;57.57;97643.06;5079262;28;20097;-71
2021/12/02 06:18:50;;;;;;;8.40;2.40;;;;;;;-4.10;57.66;97644.59;5078719;28;20060;-73
2021/12/02 06:21:16;;;;;;;6.83;2.50;;;;;;;-4.06;58.10;97637.72;5083360;28;20052;-73
2021/12/02 06:23:42;;;;;;;7.67;2.27;;;;;;;-4.21;58.09;97632.03;5079791;28;20044;-73
2021/12/02 06:26:09;;;;;;;6.33;2.13;;;;;;;-4.14;58.16;97649.56;5084760;28;20051;-72
2021/12/02 06:28:35;;;;;;;8.10;2.53;;;;;;;-4.15;58.26;97655.94;5084209;28;20048;-72
2021/12/02 06:31:02;;;;;;;8.87;2.20;;;;;;;-3.97;57.92;97650.75;5086973;28;20048;-73
2021/12/02 06:33:28;;;;;;;;;;;;;;;-3.89;57.65;97653.88;5088451;28;20576;-74
2021/12/02 06:35:55;;;;;;;7.43;2.10;;;;;;;-3.96;57.58;97655.81;5089993;28;19923;-71
2021/12/02 06:38:21;;;;;;;6.57;2.20;;;;;;;-3.96;57.96;97653.16;5087570;28;20632;-72
2021/12/02 06:40:47;;;;;;;8.67;2.23;;;;;;;-3.83;57.79;97646.75;5089648;28;20036;-72
2021/12/02 06:43:15;;;;;;;7.40;2.10;;;;;;;-3.79;57.77;97652.44;5088474;28;20051;-74
2021/12/02 06:45:41;;;;;;;6.23;2.03;;;;;;;-3.81;57.71;97658.03;5089487;28;20420;-70
2021/12/02 06:48:09;;;;;;;11.83;2.70;;;;;;;-3.85;58.02;97668.38;5087944;28;20547;-71
2021/12/02 06:50:36;;;;;;;;;;;;;;;-3.65;57.94;97669.06;5088882;28;20606;-70
2021/12/02 06:53:03;;;;;;;7.15;2.25;;;;;;;-3.60;57.55;97669.16;5087764;28;19935;-71
2021/12/02 06:55:30;;;;;;;11.13;2.78;;;;;;;-3.56;57.32;97654.28;5088135;28;20044;-70
2021/12/02 06:57:56;;;;;;;8.07;2.47;;;;;;;-3.46;57.49;97667.03;5090839;28;20056;-71
2021/12/02 07:00:23;;;;;;;8.33;2.60;;;;;;;-3.33;57.32;97663.31;5089693;28;20401;-72
2021/12/02 07:02:52;;;;;;;13.32;2.63;;;;;;;-3.38;57.12;97666.69;5095534;28;20046;-70
2021/12/02 07:05:20;;;;;;;10.20;2.77;;;;;;;-3.47;57.50;97668.06;5090340;28;20134;-70
2021/12/02 07:07:46;;;;;;;10.90;3.20;;;;;;;-3.32;57.13;97651.56;5091354;28;20119;-71
2021/12/02 07:10:15;;;;;;;9.17;2.63;;;;;;;-3.15;56.95;97662.28;5089705;28;20055;-72
2021/12/02 07:12:43;;;;;;;10.57;2.50;;;;;;;-3.12;56.81;97653.81;5089757;28;20536;-72
2021/12/02 07:15:14;;;;;;;;;;;;;;;-3.30;56.73;97663.63;5096856;28;20047;-71
2021/12/02 07:17:40;;;;;;;8.50;2.53;;;;;;;-3.17;56.52;97670.56;5111225;28;20410;-71
2021/12/02 07:20:08;;;;;;;8.07;2.63;;;;;;;-3.35;56.80;97666.19;5102251;28;20044;-72
2021/12/02 07:22:35;;;;;;;9.68;2.47;;;;;;;-3.37;56.69;97675.50;5089856;28;20421;-71
2021/12/02 07:25:02;;;;;;;6.38;2.35;;;;;;;-3.37;56.89;97676.31;5089374;28;20051;-72
2021/12/02 07:27:29;;;;;;;7.97;2.70;;;;;;;-3.22;56.58;97669.66;5083572;28;20052;-72
2021/12/02 07:29:55;;;;;;;7.90;2.43;;;;;;;-3.08;56.37;97667.50;5084145;28;20050;-69
2021/12/02 07:32:25;;;;;;;10.40;2.70;;;;;;;-3.06;56.19;97663.56;5074340;28;20037;-70
2021/12/02 07:34:53;;;;;;;10.60;2.60;;;;;;;-3.15;56.29;97667.66;5070269;28;20048;-72
2021/12/02 07:37:19;;;;;;;7.18;2.40;;;;;;;-3.47;56.04;97636.84;5079080;28;20040;-72
2021/12/02 07:39:47;;;;;;;10.53;2.50;;;;;;;-3.31;56.73;97666.53;5084460;28;20086;-72
2021/12/02 07:42:17;;;;;;;10.38;2.47;;;;;;;-3.17;56.54;97667.91;5084862;28;20048;-72
2021/12/02 07:44:43;;;;;;;7.40;2.40;;;;;;;-3.14;56.24;97675.44;5065034;28;20051;-72
2021/12/02 07:47:09;;;;;;;8.63;2.23;;;;;;;-3.06;55.96;97671.56;5087961;28;20123;-70
2021/12/02 07:49:37;;;;;;;7.67;2.37;;;;;;;-3.09;56.44;97681.94;5090538;28;20044;-72
2021/12/02 07:52:04;;;;;;;;;;;;;;;-3.09;56.40;97672.06;5077864;28;20044;-71
2021/12/02 07:54:33;;;;;;;8.77;2.55;;;;;;;-3.16;56.62;97676.72;5075342;28;20047;-71
2021/12/02 07:57:00;;;;;;;10.67;3.00;;;;;;;-2.92;56.21;97660.59;5081115;28;20083;-71
2021/12/02 07:59:27;;;;;;;8.38;2.65;;;;;;;-2.95;55.83;97664.56;5092724;28;20048;-70
2021/12/02 08:02:00;;;;;;;6.10;2.07;;;;;;;-2.98;56.04;97670.38;5088974;28;20456;-70
2021/12/02 08:04:27;;;;;;;9.17;2.80;;;;;;;-3.10;56.21;97675.78;5088660;28;20389;-71
2021/12/02 08:06:54;;;;;;;10.25;3.05;;;;;;;-3.13;56.19;97677.06;5107218;28;20043;-72
2021/12/02 08:09:20;;;;;;;9.23;2.55;;;;;;;-3.12;56.29;97667.19;5097547;28;20508;-72
2021/12/02 08:11:46;;;;;;;11.00;3.13;;;;;;;-3.03;56.32;97663.06;5090145;28;20464;-72
2021/12/02 08:14:16;;;;;;;8.73;2.43;;;;;;;-2.93;56.05;97664.31;5078629;28;20048;-72
2021/12/02 08:16:43;;;;;;;11.50;3.20;;;;;;;-2.86;55.84;97663.13;5088301;28;20251;-71
2021/12/02 08:19:09;;;;;;;9.10;2.70;;;;;;;-3.09;56.29;97663.22;5090664;28;20451;-71
2021/12/02 08:21:35;;;;;;;7.97;2.50;;;;;;;-3.13;56.54;97662.88;5098931;28;20305;-73
2021/12/02 08:24:01;;;;;;;8.57;2.80;;;;;;;-2.96;56.02;97656.78;5073699;28;20048;-71
2021/12/02 08:26:29;;;;;;;9.37;2.77;;;;;;;-3.12;56.13;97640.44;5089533;28;20097;-70
2021/12/02 08:28:55;;;;;;;12.63;3.13;;;;;;;-3.06;56.18;97658.22;5089365;28;20097;-70
2021/12/02 08:31:23;;;;;;;9.70;3.07;;;;;;;-3.01;56.08;97655.63;5076911;28;20043;-70
2021/12/02 08:33:51;;;;;;;15.57;3.83;;;;;;;-3.04;56.30;97647.28;5082000;28;20454;-70
2021/12/02 08:36:20;;;;;;;14.00;3.90;;;;;;;-3.05;56.10;97659.00;5078760;28;20056;-70
2021/12/02 08:38:47;;;;;;;15.43;3.70;;;;;;;-3.17;56.15;97622.44;5072667;28;20126;-69
2021/12/02 08:41:17;;;;;;;11.57;3.45;;;;;;;-3.06;56.29;97649.34;5067672;28;20158;-69
2021/12/02 08:43:43;;;;;;;9.93;3.70;;;;;;;-3.05;56.39;97649.13;5084307;28;20428;-71
2021/12/02 08:46:10;;;;;;;11.17;2.70;;;;;;;-3.07;56.57;97655.75;5079532;28;20043;-70
2021/12/02 08:48:37;;;;;;;10.93;2.93;;;;;;;-3.03;56.61;97663.06;5076116;28;20574;-69
2021/12/02 08:51:03;;;;;;;10.20;3.28;;;;;;;-3.00;56.44;97653.75;5080013;28;20064;-67
2021/12/02 08:53:30;;;;;;;13.20;2.90;;;;;;;-3.03;56.49;97648.91;5076101;28;20587;-70
2021/12/02 08:55:56;;;;;;;9.73;3.03;;;;;;;-3.05;56.54;97638.44;5091147;27;20044;-69
2021/12/02 08:58:22;;;;;;;11.03;3.00;;;;;;;-3.07;56.77;97653.09;5080507;28;20504;-69
2021/12/02 09:00:48;;;;;;;10.93;3.00;;;;;;;-3.07;56.53;97648.56;5071016;28;20041;-69
2021/12/02 09:03:16;;;;;;;9.50;3.10;;;;;;;-3.14;56.59;97640.69;5043556;28;20049;-79
2021/12/02 09:05:44;;;;;;;8.70;3.05;;;;;;;-3.16;56.98;97616.03;5040697;28;20044;-77
2021/12/02 09:08:13;;;;;;;;;;;;;;;-3.01;56.65;97631.53;5039099;28;20045;-77
2021/12/02 09:10:45;;;;;;;11.27;3.67;;;;;;;-3.21;56.57;97589.19;5054043;28;19929;-76
2021/12/02 09:13:12;;;;;;;10.67;3.50;;;;;;;-2.97;56.62;97613.16;5050912;28;20087;-76
2021/12/02 09:15:39;;;;;;;11.00;4.20;;;;;;;-2.99;56.40;97626.75;5039987;28;20053;-77
2021/12/02 09:18:05;;;;;;;10.85;3.50;;;;;;;-2.99;56.52;97618.75;5056206;28;20046;-76
2021/12/02 09:20:31;;;;;;;14.43;4.87;;;;;;;-2.94;56.57;97636.75;5045973;28;20049;-76
2021/12/02 09:22:59;;;;;;;9.53;3.37;;;;;;;-2.93;56.75;97635.69;5039956;28;20061;-77
2021/12/02 09:25:25;;;;;;;8.55;3.03;;;;;;;-2.94;56.58;97623.38;5054084;28;20505;-79
2021/12/02 09:27:51;;;;;;;10.70;2.97;;;;;;;-2.95;56.44;97635.13;5044318;28;20107;-78
2021/12/02 09:30:18;;;;;;;8.50;2.63;;;;;;;-2.97;56.70;97639.91;5033905;28;20049;-77
2021/12/02 09:32:45;;;;;;;8.00;2.75;;;;;;;-3.01;56.76;97630.75;5041014;28;20049;-76
2021/12/02 09:35:12;;;;;;;11.43;3.80;;;;;;;-2.99;56.83;97625.97;5034296;28;20099;-76
2021/12/02 09:37:39;;;;;;;13.15;3.20;;;;;;;-2.96;56.64;97614.00;5045998;28;20521;-76
2021/12/02 09:40:09;;;;;;;7.88;2.90;;;;;;;-2.86;56.69;97624.84;5037582;28;20050;-73
2021/12/02 09:42:35;;;;;;;7.43;2.70;;;;;;;-2.82;56.73;97627.88;5044049;28;20176;-73
2021/12/02 09:45:02;;;;;;;7.50;2.80;;;;;;;-2.88;56.79;97611.75;5042189;28;20440;-80
2021/12/02 09:47:30;;;;;;;12.23;3.25;;;;;;;-2.86;56.59;97596.25;5038059;28;20049;-81
2021/12/02 09:49:59;;;;;;;6.50;2.42;;;;;;;-2.82;56.68;97609.13;5039969;28;20041;-79
2021/12/02 09:52:34;;;;;;;8.93;2.63;;;;;;;-2.97;56.96;97593.63;5044375;28;20060;-80
2021/12/02 09:55:05;;;;;;;7.53;2.63;;;;;;;-2.92;56.63;97591.06;5036392;28;20056;-81
2021/12/02 09:57:37;;;;;;;9.93;3.03;;;;;;;-2.81;56.59;97592.03;5061195;28;20069;-81
2021/12/02 10:00:06;;;;;;;8.57;3.03;;;;;;;-2.87;56.78;97588.47;5035198;28;20144;-80
2021/12/02 10:02:41;;;;;;;11.67;3.27;;;;;;;-2.84;56.70;97585.28;5038757;28;20140;-72
2021/12/02 10:05:11;;;;;;;7.37;2.60;;;;;;;-2.86;56.85;97590.06;5043426;28;20087;-74
2021/12/02 10:07:51;;;;;;;9.20;2.83;;;;;;;-2.85;56.79;97583.69;5060976;28;20572;-72
2021/12/02 10:10:35;;;;;;;10.00;2.80;;;;;;;-2.80;56.60;97582.97;5029518;28;20433;-72
2021/12/02 10:13:34;;;;;;;9.30;2.93;;;;;;;-2.89;56.76;97583.38;5043701;28;20046;-72
2021/12/02 10:16:15;;;;;;;10.33;2.93;;;;;;;-2.89;56.70;97578.03;5037502;28;20495;-73
2021/12/02 10:18:53;;;;;;;11.23;2.80;;;;;;;-2.92;56.96;97581.16;5041163;28;20044;-71
2021/12/02 10:21:30;;;;;;;9.07;2.83;;;;;;;-2.79;56.62;97581.91;5044341;28;20047;-72
2021/12/02 10:24:00;;;;;;;8.10;2.45;;;;;;;-2.79;56.83;97573.88;5042042;28;20500;-72
2021/12/02 10:26:27;;;;;;;8.90;2.70;;;;;;;-2.75;56.77;97570.47;5044351;28;20268;-73
2021/12/02 10:28:54;;;;;;;9.47;2.57;;;;;;;-2.77;56.81;97577.94;5058948;28;20050;-71
2021/12/02 10:31:24;;;;;;;7.97;2.55;;;;;;;-2.76;56.56;97576.88;5044261;28;20091;-78
2021/12/02 10:33:54;;;;;;;9.23;2.77;;;;;;;-2.81;56.71;97581.34;5039773;28;20469;-77
2021/12/02 10:36:29;;;;;;;9.20;3.07;;;;;;;-2.74;56.92;97579.31;5044293;28;20046;-78
2021/12/02 10:39:00;;;;;;;11.20;3.00;;;;;;;-2.71;56.55;97562.78;5030192;28;20060;-77
2021/12/02 10:41:29;;;;;;;8.33;2.87;;;;;;;-2.76;56.78;97568.84;5047215;28;20505;-77
2021/12/02 10:44:16;;;;;;;12.63;3.10;;;;;;;-2.75;56.97;97569.66;5044818;28;20045;-75
2021/12/02 10:47:01;;;;;;;9.57;2.97;;;;;;;-2.67;56.95;97569.25;5061320;28;20114;-79
2021/12/02 10:49:31;;;;;;;11.07;3.13;;;;;;;-2.71;56.73;97547.53;5045389;28;20037;-76
2021/12/02 10:51:58;;;;;;;10.73;3.27;;;;;;;-2.61;56.51;97546.88;5023399;28;20635;-77
2021/12/02 10:54:28;;;;;;;12.75;3.58;;;;;;;-2.52;56.68;97557.19;5044310;28;20139;-75
2021/12/02 10:56:56;;;;;;;9.00;2.90;;;;;;;-2.51;56.79;97562.28;5041634;28;20057;-77
2021/12/02 10:59:36;;;;;;;10.27;3.27;;;;;;;-2.49;56.64;97554.84;5039471;28;20041;-78
2021/12/02 11:02:05;;;;;;;13.57;3.90;;;;;;;-2.46;56.78;97538.28;5040565;28;20426;-78
2021/12/02 11:04:40;;;;;;;12.60;3.70;;;;;;;-2.42;56.90;97552.78;5051156;28;20064;-75
2021/12/02 11:07:11;;;;;;;24.47;4.80;;;;;;;-2.48;56.75;97539.56;5050449;28;20053;-77
2021/12/02 11:09:59;;;;;;;16.03;4.10;;;;;;;-2.44;56.75;97538.00;5051740;28;20037;-77
2021/12/02 11:16:55;;;;;;;11.90;3.57;;;;;;;-2.46;56.64;97548.16;4957060;28;20078;-78
2021/12/02 11:20:15;;;;;;;;;;;;;;;;;;;;;
2021/12/02 11:23:10;;;;;;;11.73;3.40;;;;;;;-2.43;56.68;97545.00;5011538;28;20067;-71
2021/12/02 11:25:38;;;;;;;13.60;3.73;;;;;;;-2.41;56.54;97548.25;5049933;28;20172;-71
2021/12/02 11:28:06;;;;;;;16.23;3.47;;;;;;;-2.47;56.62;97533.97;5039429;28;20053;-70
2021/12/02 11:30:33;;;;;;;12.85;4.07;;;;;;;-2.38;56.60;97533.56;5049196;28;20182;-71
2021/12/02 11:33:01;;;;;;;15.77;4.93;;;;;;;-2.43;56.94;97521.72;5043908;28;20075;-72
2021/12/02 11:35:33;;;;;;;18.93;5.33;;;;;;;-2.44;57.18;97522.78;5047127;28;20052;-71
2021/12/02 11:38:04;;;;;;;17.00;4.63;;;;;;;-2.40;57.14;97528.47;5035148;28;20472;-75
2021/12/02 11:40:35;;;;;;;19.80;4.33;;;;;;;-2.45;57.20;97512.31;5032571;28;20072;-74
2021/12/02 11:43:01;;;;;;;15.77;3.73;;;;;;;-2.47;57.48;97506.41;5046166;28;20375;-77
2021/12/02 11:45:30;;;;;;;14.27;3.73;;;;;;;-2.45;57.09;97499.75;5032443;28;20044;-75
2021/12/02 11:47:56;;;;;;;15.83;4.00;;;;;;;-2.48;57.57;97494.91;5050363;28;20060;-74
2021/12/02 11:50:30;;;;;;;17.33;4.43;;;;;;;-2.51;57.75;97483.88;5051435;28;20413;-75
2021/12/02 11:52:56;;;;;;;16.63;4.20;;;;;;;-2.52;57.50;97476.91;5048875;28;20049;-74
2021/12/02 11:55:25;;;;;;;21.90;5.23;;;;;;;-2.50;57.59;97474.78;5065414;28;20535;-76
2021/12/02 11:57:52;;;;;;;19.70;5.50;;;;;;;-2.43;57.73;97473.53;5042740;28;20139;-76
2021/12/02 12:00:23;;;;;;;11.60;3.43;;;;;;;-2.37;57.60;97468.25;5049829;28;20055;-76